createdAt,value
2022-08-10T00:00:54.482Z,73.20
2022-08-10T00:03:23.577Z,73.10
2022-08-10T00:05:54.899Z,73.20
2022-08-10T00:08:24.939Z,73.30
2022-08-10T00:10:52.876Z,73.10
2022-08-10T00:13:20.982Z,73.50
2022-08-10T00:15:53.874Z,73.40
2022-08-10T00:18:34.367Z,73.20
2022-08-10T00:21:04.856Z,73.30
2022-08-10T00:23:32.600Z,73.60
2022-08-10T00:26:00.347Z,73.80
2022-08-10T00:28:28.436Z,73.90
2022-08-10T00:30:56.298Z,74.00
2022-08-10T00:33:25.366Z,74.00
2022-08-10T00:35:53.219Z,74.20
2022-08-10T00:38:20.935Z,74.20
2022-08-10T00:40:48.653Z,74.50
2022-08-10T00:43:16.931Z,74.50
2022-08-10T00:45:59.223Z,74.40
2022-08-10T00:48:30.799Z,74.60
2022-08-10T00:50:59.151Z,74.70
2022-08-10T00:53:27.065Z,74.60
2022-08-10T00:57:12.797Z,74.90
2022-08-10T00:58:43.047Z,75.00
2022-08-10T01:01:11.661Z,75.20
2022-08-10T01:04:40.327Z,75.10
2022-08-10T01:06:51.864Z,75.30
2022-08-10T01:09:22.483Z,75.40
2022-08-10T01:12:38.188Z,75.60
2022-08-10T01:14:46.794Z,75.60
2022-08-10T01:17:16.391Z,75.60
2022-08-10T01:19:53.838Z,76.00
2022-08-10T01:22:29.136Z,75.80
2022-08-10T01:25:11.930Z,76.10
2022-08-10T01:27:45.816Z,76.20
2022-08-10T01:30:15.741Z,76.40
2022-08-10T01:32:47.330Z,76.50
2022-08-10T01:35:17.916Z,76.70
2022-08-10T01:37:52.073Z,76.60
2022-08-10T01:40:25.038Z,77.00
2022-08-10T01:42:54.140Z,77.20
2022-08-10T01:45:25.039Z,77.20
2022-08-10T01:48:16.840Z,77.20
2022-08-10T01:50:53.289Z,77.50
2022-08-10T01:53:28.640Z,77.60
2022-08-10T01:56:10.339Z,77.60
2022-08-10T01:58:38.554Z,78.00
2022-08-10T02:01:08.386Z,77.70
2022-08-10T02:04:04.295Z,78.00
2022-08-10T02:06:25.959Z,78.00
2022-08-10T02:09:00.342Z,78.10
2022-08-10T02:12:06.754Z,78.40
2022-08-10T02:14:22.424Z,78.20
2022-08-10T02:16:52.464Z,78.60
2022-08-10T02:19:22.826Z,78.60
2022-08-10T02:22:34.787Z,78.80
2022-08-10T02:24:42.120Z,78.90
2022-08-10T02:27:10.819Z,78.90
2022-08-10T02:29:42.417Z,79.40
2022-08-10T02:32:12.811Z,79.20
2022-08-10T02:34:51.084Z,79.30
2022-08-10T02:37:22.847Z,79.40
2022-08-10T02:39:50.616Z,79.60
2022-08-10T02:45:22.446Z,79.80
2022-08-10T02:45:29.444Z,80.10
2022-08-10T02:48:01.067Z,80.10
2022-08-10T02:50:29.879Z,80.30
2022-08-10T02:53:01.070Z,80.40
2022-08-10T02:55:32.900Z,80.40
2022-08-10T02:58:17.345Z,80.50
2022-08-10T03:00:48.082Z,80.60
2022-08-10T03:03:20.296Z,80.90
2022-08-10T03:05:49.866Z,80.90
2022-08-10T03:08:19.549Z,81.10
2022-08-10T03:10:47.911Z,81.40
2022-08-10T03:13:15.884Z,81.60
2022-08-10T03:15:44.136Z,81.70
2022-08-10T03:18:12.816Z,81.60
2022-08-10T03:20:43.607Z,82.00
2022-08-10T03:23:13.764Z,82.20
2022-08-10T03:25:53.898Z,82.40
2022-08-10T03:28:23.129Z,82.80
2022-08-10T03:30:50.900Z,82.80
2022-08-10T03:33:18.937Z,83.00
2022-08-10T03:36:42.644Z,82.90
2022-08-10T03:38:35.974Z,83.30
2022-08-10T03:41:04.924Z,83.30
2022-08-10T03:43:33.889Z,83.50
2022-08-10T03:46:04.065Z,83.80
2022-08-10T03:48:49.247Z,83.70
2022-08-10T03:51:19.606Z,84.10
2022-08-10T03:54:05.458Z,84.20
2022-08-10T03:56:35.404Z,84.30
2022-08-10T03:59:03.168Z,84.50
2022-08-10T04:02:44.420Z,84.50
2022-08-10T04:04:24.139Z,84.40
2022-08-10T04:06:55.694Z,84.40
2022-08-10T04:09:23.984Z,84.50
2022-08-10T04:11:51.889Z,84.70
2022-08-10T04:14:47.580Z,84.70
2022-08-10T04:17:11.951Z,85.00
2022-08-10T04:19:43.970Z,85.20
2022-08-10T04:22:15.877Z,85.40
2022-08-10T04:24:44.295Z,85.40
2022-08-10T04:27:12.408Z,85.40
2022-08-10T04:29:40.220Z,85.50
2022-08-10T04:32:10.469Z,85.80
2022-08-10T04:34:38.735Z,86.10
2022-08-10T04:37:09.215Z,86.40
2022-08-10T04:39:38.878Z,86.60
2022-08-10T04:42:07.049Z,86.40
2022-08-10T04:44:34.995Z,86.90
2022-08-10T04:47:02.698Z,87.00
2022-08-10T04:49:56.623Z,87.10
2022-08-10T04:52:18.885Z,87.10
2022-08-10T04:54:47.965Z,87.50
2022-08-10T04:57:15.679Z,87.60
2022-08-10T04:59:43.542Z,87.90
2022-08-10T05:02:30.668Z,87.80
2022-08-10T05:04:59.308Z,88.00
2022-08-10T05:07:27.095Z,88.10
2022-08-10T05:10:04.633Z,88.30
2022-08-10T05:12:36.281Z,88.20
2022-08-10T05:15:06.054Z,88.50
2022-08-10T05:17:34.445Z,88.60
2022-08-10T05:20:06.374Z,89.30
2022-08-10T05:22:36.274Z,88.60
2022-08-10T05:25:06.689Z,88.10
2022-08-10T05:27:34.613Z,88.00
2022-08-10T05:30:03.619Z,87.80
2022-08-10T05:32:32.278Z,87.90
2022-08-10T05:35:00.042Z,87.70
2022-08-10T05:38:09.519Z,86.70
2022-08-10T05:40:18.618Z,87.10
2022-08-10T05:42:46.346Z,86.80
2022-08-10T05:45:18.589Z,85.70
2022-08-10T05:48:41.625Z,85.40
2022-08-10T05:50:34.643Z,86.10
2022-08-10T05:54:00.005Z,85.00
2022-08-10T05:55:51.642Z,84.70
2022-08-10T05:58:19.399Z,83.60
2022-08-10T06:00:49.874Z,84.00
2022-08-10T06:03:23.880Z,83.10
2022-08-10T06:05:54.696Z,83.30
2022-08-10T06:08:24.109Z,83.60
2022-08-10T06:12:25.987Z,82.80
2022-08-10T06:14:13.783Z,83.30
2022-08-10T06:16:44.827Z,81.60
2022-08-10T06:19:15.083Z,81.80
2022-08-10T06:22:00.442Z,81.10
2022-08-10T06:24:30.443Z,81.30
2022-08-10T06:27:00.592Z,81.70
2022-08-10T06:29:30.446Z,81.00
2022-08-10T06:31:58.356Z,80.60
2022-08-10T06:34:30.184Z,80.40
2022-08-10T06:36:58.881Z,80.60
2022-08-10T06:39:36.093Z,80.20
2022-08-10T06:42:16.070Z,80.20
2022-08-10T06:44:48.178Z,80.50
2022-08-10T06:47:22.972Z,79.50
2022-08-10T06:49:53.077Z,79.20
2022-08-10T06:52:21.396Z,79.20
2022-08-10T06:54:50.059Z,79.00
2022-08-10T06:57:20.434Z,79.10
2022-08-10T06:59:48.953Z,79.60
2022-08-10T07:02:20.474Z,78.70
2022-08-10T07:04:51.696Z,78.60
2022-08-10T07:07:20.177Z,78.70
2022-08-10T07:09:49.155Z,78.40
2022-08-10T07:12:18.238Z,77.60
2022-08-10T07:14:47.519Z,78.30
2022-08-10T07:17:17.203Z,76.70
2022-08-10T07:19:50.320Z,77.50
2022-08-10T07:23:51.796Z,77.60
2022-08-10T07:25:09.498Z,76.80
2022-08-10T07:28:00.539Z,77.30
2022-08-10T07:30:29.135Z,77.70
2022-08-10T07:32:57.012Z,77.40
2022-08-10T07:35:25.290Z,76.20
2022-08-10T07:37:53.982Z,75.80
2022-08-10T07:40:22.282Z,76.60
2022-08-10T07:42:51.938Z,76.10
2022-08-10T07:45:19.787Z,78.00
2022-08-10T07:47:54.885Z,75.30
2022-08-10T07:50:24.381Z,75.00
2022-08-10T07:52:52.979Z,75.40
2022-08-10T07:56:01.787Z,74.80
2022-08-10T07:58:10.924Z,75.50
2022-08-10T08:00:38.818Z,74.70
2022-08-10T08:03:09.322Z,76.60
2022-08-10T08:05:58.777Z,75.60
2022-08-10T08:08:25.812Z,74.60
2022-08-10T08:10:57.940Z,75.50
2022-08-10T08:13:25.920Z,74.40
2022-08-10T08:16:17.021Z,74.70
2022-08-10T08:19:03.760Z,75.10
2022-08-10T08:24:05.429Z,74.60
2022-08-10T08:24:32.737Z,73.60
2022-08-10T08:27:02.179Z,73.70
2022-08-10T08:29:30.483Z,73.20
2022-08-10T08:32:02.051Z,73.10
2022-08-10T08:34:32.543Z,73.10
2022-08-10T08:37:01.241Z,73.10
2022-08-10T08:39:29.045Z,72.70
2022-08-10T08:42:15.916Z,72.10
2022-08-10T08:44:51.295Z,71.10
2022-08-10T08:48:02.144Z,72.20
2022-08-10T08:50:25.674Z,71.70
2022-08-10T08:52:59.940Z,71.90
2022-08-10T08:56:05.078Z,71.10
2022-08-10T08:58:31.285Z,72.10
2022-08-10T09:01:04.250Z,71.40
2022-08-10T09:03:40.456Z,70.80
2022-08-10T09:06:16.974Z,71.30
2022-08-10T09:08:53.421Z,71.80
2022-08-10T09:11:29.303Z,71.80
2022-08-10T09:14:02.490Z,71.00
2022-08-10T09:16:35.889Z,70.90
2022-08-10T09:19:06.526Z,69.50
2022-08-10T09:21:52.339Z,70.10
2022-08-10T09:24:28.652Z,68.90
2022-08-10T09:26:59.297Z,69.60
2022-08-10T09:29:28.021Z,69.30
2022-08-10T09:36:13.627Z,69.00
2022-08-10T09:36:21.771Z,68.00
2022-08-10T09:38:01.450Z,68.70
2022-08-10T09:41:00.940Z,67.80
2022-08-10T09:43:26.816Z,68.30
2022-08-10T09:45:59.804Z,68.60
2022-08-10T09:48:31.836Z,67.30
2022-08-10T09:53:56.295Z,67.20
2022-08-10T09:56:28.885Z,66.70
2022-08-10T09:59:29.228Z,66.10
2022-08-10T10:02:02.497Z,65.40
2022-08-10T10:04:39.939Z,65.60
2022-08-10T10:07:08.935Z,66.00
2022-08-10T10:09:44.114Z,64.90
2022-08-10T10:12:16.158Z,64.60
2022-08-10T10:15:09.553Z,64.80
2022-08-10T10:17:43.744Z,63.40
2022-08-10T10:20:15.879Z,64.10
2022-08-10T10:22:53.235Z,64.20
2022-08-10T10:25:50.706Z,65.50
2022-08-10T10:28:23.671Z,62.00
2022-08-10T10:30:55.273Z,61.90
2022-08-10T10:33:31.758Z,61.70
2022-08-10T10:36:02.025Z,62.60
2022-08-10T10:38:33.567Z,62.50
2022-08-10T10:41:09.187Z,62.20
2022-08-10T10:43:41.861Z,63.10
2022-08-10T10:46:14.179Z,63.00
2022-08-10T10:48:48.633Z,62.30
2022-08-10T10:51:19.601Z,61.40
2022-08-10T10:53:50.582Z,62.50
2022-08-10T10:56:25.757Z,62.20
2022-08-10T10:59:33.229Z,62.80
2022-08-10T11:01:58.104Z,62.60
2022-08-10T11:04:28.127Z,63.60
2022-08-10T11:07:02.971Z,63.00
2022-08-10T11:10:05.188Z,63.30
2022-08-10T11:12:27.494Z,62.20
2022-08-10T11:14:59.551Z,60.70
2022-08-10T11:17:31.130Z,61.50
2022-08-10T11:20:04.505Z,60.90
2022-08-10T11:22:36.537Z,60.90
2022-08-10T11:25:09.229Z,60.90
2022-08-10T11:27:43.096Z,60.80
2022-08-10T11:30:12.852Z,61.20
2022-08-10T11:32:47.566Z,59.60
2022-08-10T11:35:28.630Z,60.20
2022-08-10T11:38:31.367Z,59.40
2022-08-10T11:40:53.975Z,60.70
2022-08-10T11:43:27.145Z,61.40
2022-08-10T11:46:02.945Z,60.10
2022-08-10T11:48:54.509Z,58.80
2022-08-10T11:51:26.462Z,57.30
2022-08-10T11:53:58.027Z,57.50
2022-08-10T11:56:28.660Z,57.90
2022-08-10T11:59:17.213Z,56.80
2022-08-10T12:01:46.480Z,57.30
2022-08-10T12:04:15.303Z,56.50
2022-08-10T12:06:55.173Z,56.90
2022-08-10T12:10:09.880Z,57.20
2022-08-10T12:12:12.926Z,57.40
2022-08-10T12:14:47.459Z,57.20
2022-08-10T12:17:17.782Z,56.70
2022-08-10T12:20:02.522Z,56.90
2022-08-10T12:22:34.134Z,56.40
2022-08-10T12:25:02.897Z,56.50
2022-08-10T12:27:32.424Z,56.60
2022-08-10T12:30:04.600Z,56.80
2022-08-10T12:32:36.663Z,56.70
2022-08-10T12:35:07.715Z,57.00
2022-08-10T12:37:39.441Z,56.00
2022-08-10T12:40:34.691Z,56.50
2022-08-10T12:43:12.843Z,56.10
2022-08-10T12:45:57.321Z,55.80
2022-08-10T12:48:31.155Z,54.70
2022-08-10T12:51:00.884Z,54.40
2022-08-10T12:53:36.450Z,55.10
2022-08-10T12:56:04.680Z,55.40
2022-08-10T12:58:57.115Z,55.20
2022-08-10T13:01:24.184Z,56.80
2022-08-10T13:04:23.132Z,54.50
2022-08-10T13:06:46.034Z,55.20
2022-08-10T13:09:14.173Z,54.90
2022-08-10T13:12:36.200Z,53.90
2022-08-10T13:14:36.679Z,53.80
2022-08-10T13:17:07.730Z,54.00
2022-08-10T13:19:55.414Z,53.70
2022-08-10T13:22:24.815Z,53.70
2022-08-10T13:24:55.643Z,53.90
2022-08-10T13:28:00.970Z,53.90
2022-08-10T13:30:15.272Z,53.50
2022-08-10T13:32:48.700Z,54.10
2022-08-10T13:35:18.830Z,54.70
2022-08-10T13:37:47.939Z,54.20
2022-08-10T13:40:17.334Z,54.60
2022-08-10T13:42:45.252Z,54.70
2022-08-10T13:45:14.713Z,55.10
2022-08-10T13:47:49.767Z,54.30
2022-08-10T13:50:22.150Z,54.10
2022-08-10T13:53:03.712Z,54.70
2022-08-10T13:55:47.006Z,54.50
2022-08-10T13:58:23.248Z,54.30
2022-08-10T14:00:51.199Z,53.20
2022-08-10T14:03:21.113Z,53.60
2022-08-10T14:05:51.532Z,53.10
2022-08-10T14:08:20.632Z,52.90
2022-08-10T14:11:08.874Z,53.60
2022-08-10T14:13:38.117Z,53.10
2022-08-10T14:16:06.887Z,54.00
2022-08-10T14:18:36.423Z,54.10
2022-08-10T14:21:05.825Z,54.80
2022-08-10T14:23:39.844Z,54.50
2022-08-10T14:26:09.380Z,54.50
2022-08-10T14:28:40.074Z,54.30
2022-08-10T14:31:09.591Z,53.10
2022-08-10T14:33:39.926Z,52.70
2022-08-10T14:36:22.376Z,52.30
2022-08-10T14:38:54.018Z,52.70
2022-08-10T14:42:01.530Z,53.40
2022-08-10T14:44:13.424Z,52.90
2022-08-10T14:46:44.088Z,53.10
2022-08-10T14:49:25.847Z,52.70
2022-08-10T14:51:58.836Z,52.80
2022-08-10T14:54:29.730Z,53.00
2022-08-10T14:57:10.871Z,53.00
2022-08-10T15:00:25.210Z,52.90
2022-08-10T15:02:38.619Z,52.30
2022-08-10T15:05:09.642Z,52.30
2022-08-10T15:07:38.198Z,52.60
2022-08-10T15:10:07.799Z,51.90
2022-08-10T15:12:36.703Z,52.50
2022-08-10T15:15:08.018Z,52.40
2022-08-10T15:17:39.403Z,52.70
2022-08-10T15:20:15.075Z,52.30
2022-08-10T15:22:46.475Z,51.80
2022-08-10T15:25:18.099Z,51.80
2022-08-10T15:27:53.417Z,52.50
2022-08-10T15:30:30.228Z,52.10
2022-08-10T15:33:21.567Z,51.60
2022-08-10T15:36:24.143Z,51.70
2022-08-10T15:38:58.663Z,50.80
2022-08-10T15:41:58.524Z,51.20
2022-08-10T15:44:24.459Z,51.30
2022-08-10T15:46:53.404Z,51.20
2022-08-10T15:49:25.628Z,51.00
2022-08-10T15:51:58.111Z,50.70
2022-08-10T15:54:33.770Z,51.70
2022-08-10T15:57:03.475Z,51.70
2022-08-10T15:59:32.788Z,51.60
2022-08-10T16:02:15.297Z,51.90
2022-08-10T16:04:48.389Z,51.90
2022-08-10T16:07:20.878Z,52.20
2022-08-10T16:10:24.031Z,52.20
2022-08-10T16:12:39.940Z,52.60
2022-08-10T16:15:10.596Z,52.50
2022-08-10T16:17:54.133Z,52.40
2022-08-10T16:20:27.071Z,52.60
2022-08-10T16:22:57.836Z,52.30
2022-08-10T16:25:49.786Z,53.00
2022-08-10T16:28:20.135Z,52.70
2022-08-10T16:30:53.097Z,53.00
2022-08-10T16:33:23.863Z,52.50
2022-08-10T16:35:58.382Z,53.30
2022-08-10T16:38:27.838Z,53.20
2022-08-10T16:40:56.248Z,53.70
2022-08-10T16:43:25.263Z,54.00
2022-08-10T16:45:55.286Z,54.00
2022-08-10T16:48:49.475Z,54.00
2022-08-10T16:51:14.090Z,54.10
2022-08-10T16:53:47.624Z,54.70
2022-08-10T16:56:16.743Z,54.30
2022-08-10T16:58:45.232Z,54.90
2022-08-10T17:01:15.511Z,54.60
2022-08-10T17:04:07.125Z,54.70
2022-08-10T17:06:35.992Z,54.70
2022-08-10T17:09:06.221Z,54.60
2022-08-10T17:11:35.804Z,54.90
2022-08-10T17:14:04.337Z,54.90
2022-08-10T17:16:35.109Z,55.10
2022-08-10T17:19:03.359Z,55.10
2022-08-10T17:21:36.039Z,55.50
2022-08-10T17:24:06.581Z,55.30
2022-08-10T17:26:37.414Z,55.40
2022-08-10T17:29:53.745Z,55.40
2022-08-10T17:32:00.737Z,56.00
2022-08-10T17:34:32.648Z,55.70
2022-08-10T17:37:01.632Z,55.50
2022-08-10T17:39:33.349Z,55.60
2022-08-10T17:42:01.866Z,55.90
2022-08-10T17:44:35.262Z,55.80
2022-08-10T17:47:11.058Z,56.30
2022-08-10T17:49:39.680Z,56.30
2022-08-10T17:52:09.517Z,55.80
2022-08-10T17:54:41.397Z,56.20
2022-08-10T17:57:10.875Z,56.10
2022-08-10T17:59:39.661Z,56.50
2022-08-10T18:02:08.730Z,56.30
2022-08-10T18:04:41.482Z,56.20
2022-08-10T18:07:11.445Z,56.30
2022-08-10T18:09:43.299Z,56.70
2022-08-10T18:12:18.049Z,57.50
2022-08-10T18:14:48.264Z,57.10
2022-08-10T18:17:18.105Z,57.40
2022-08-10T18:19:47.794Z,57.70
2022-08-10T18:22:16.555Z,58.20
2022-08-10T18:24:46.542Z,57.80
2022-08-10T18:27:15.183Z,57.60
2022-08-10T18:29:43.691Z,57.40
2022-08-10T18:32:12.149Z,58.10
2022-08-10T18:34:41.740Z,58.00
2022-08-10T18:37:10.985Z,57.80
2022-08-10T18:39:40.494Z,57.80
2022-08-10T18:42:11.905Z,57.80
2022-08-10T18:44:41.829Z,58.00
2022-08-10T18:47:11.935Z,58.20
2022-08-10T18:49:50.320Z,59.20
2022-08-10T18:52:18.991Z,60.00
2022-08-10T18:54:48.363Z,60.80
2022-08-10T18:57:22.619Z,61.10
2022-08-10T19:00:08.116Z,61.30
2022-08-10T19:02:54.760Z,61.40
2022-08-10T19:05:31.387Z,61.10
2022-08-10T19:08:09.816Z,61.30
2022-08-10T19:10:43.458Z,61.30
2022-08-10T19:13:18.860Z,61.50
2022-08-10T19:15:53.175Z,61.80
2022-08-10T19:18:27.050Z,61.90
2022-08-10T19:20:56.259Z,62.80
2022-08-10T19:23:46.814Z,62.90
2022-08-10T19:26:44.445Z,62.70
2022-08-10T19:30:09.757Z,62.80
2022-08-10T19:32:10.817Z,63.40
2022-08-10T19:34:47.251Z,64.00
2022-08-10T19:37:21.857Z,64.00
2022-08-10T19:40:11.813Z,64.30
2022-08-10T19:42:41.366Z,64.40
2022-08-10T19:46:00.886Z,64.40
2022-08-10T19:48:10.193Z,64.90
2022-08-10T19:50:40.662Z,64.80
2022-08-10T19:53:14.753Z,65.10
2022-08-10T19:55:44.266Z,65.20
2022-08-10T19:58:17.619Z,65.10
2022-08-10T20:00:54.411Z,65.60
2022-08-10T20:03:23.852Z,66.00
2022-08-10T20:06:13.459Z,65.60
2022-08-10T20:08:48.379Z,66.20
2022-08-10T20:11:45.675Z,66.10
2022-08-10T20:14:21.909Z,66.40
2022-08-10T20:16:56.185Z,66.60
2022-08-10T20:19:52.587Z,66.40
2022-08-10T20:22:28.967Z,66.40
2022-08-10T20:25:01.593Z,66.50
2022-08-10T20:27:59.079Z,66.50
2022-08-10T20:30:23.074Z,66.90
2022-08-10T20:32:57.659Z,66.70
2022-08-10T20:35:26.075Z,66.70
2022-08-10T20:38:03.444Z,66.70
2022-08-10T20:40:36.342Z,66.80
2022-08-10T20:43:08.003Z,67.00
2022-08-10T20:46:05.062Z,67.00
2022-08-10T20:48:35.631Z,67.20
2022-08-10T20:51:04.437Z,67.20
2022-08-10T20:53:33.310Z,67.10
2022-08-10T20:56:04.300Z,67.40
2022-08-10T20:58:43.814Z,67.40
2022-08-10T21:01:17.199Z,67.50
2022-08-10T21:03:59.509Z,67.60
2022-08-10T21:06:44.293Z,68.00
2022-08-10T21:09:21.684Z,67.90
2022-08-10T21:11:54.474Z,68.20
2022-08-10T21:14:29.063Z,68.40
2022-08-10T21:17:04.272Z,68.30
2022-08-10T21:19:56.338Z,68.70
2022-08-10T21:22:28.928Z,68.60
2022-08-10T21:24:59.463Z,69.00
2022-08-10T21:27:47.104Z,68.80
2022-08-10T21:30:16.688Z,69.00
2022-08-10T21:32:50.644Z,69.20
2022-08-10T21:35:37.135Z,69.10
2022-08-10T21:38:07.950Z,69.60
2022-08-10T21:40:40.597Z,69.50
2022-08-10T21:43:44.473Z,69.60
2022-08-10T21:46:37.209Z,69.70
2022-08-10T21:49:24.948Z,69.90
2022-08-10T21:52:26.911Z,70.20
2022-08-10T21:55:14.009Z,70.20
2022-08-10T21:58:04.548Z,70.40
2022-08-10T22:00:51.412Z,70.60
2022-08-10T22:03:40.169Z,70.40
2022-08-10T22:06:26.621Z,70.60
2022-08-10T22:09:15.534Z,70.90
2022-08-10T22:12:04.098Z,70.80
2022-08-10T22:14:51.618Z,70.90
2022-08-10T22:18:03.418Z,71.00
2022-08-10T22:20:44.491Z,71.00
2022-08-10T22:23:42.262Z,71.10
2022-08-10T22:26:37.279Z,71.50
2022-08-10T22:29:25.202Z,71.80
2022-08-10T22:32:41.120Z,71.60
2022-08-10T22:35:34.851Z,71.90
2022-08-10T22:38:32.956Z,71.90
2022-08-10T22:41:20.955Z,72.00
2022-08-10T22:44:08.395Z,71.90
2022-08-10T22:46:54.439Z,72.20
2022-08-10T22:49:21.483Z,72.30
2022-08-10T22:51:53.453Z,72.10
2022-08-10T22:54:40.243Z,72.30
2022-08-10T22:57:29.863Z,72.40
2022-08-10T22:59:59.096Z,72.30
2022-08-10T23:02:31.486Z,72.50
2022-08-10T23:05:06.569Z,72.80
2022-08-10T23:07:35.310Z,72.90
2022-08-10T23:10:06.422Z,72.80
2022-08-10T23:12:36.516Z,72.70
2022-08-10T23:15:25.727Z,72.80
2022-08-10T23:18:12.422Z,72.90
2022-08-10T23:20:41.537Z,73.20
2022-08-10T23:23:12.746Z,73.40
2022-08-10T23:25:57.266Z,73.50
2022-08-10T23:28:39.045Z,73.50
2022-08-10T23:31:17.644Z,73.60
2022-08-10T23:34:05.987Z,73.60
2022-08-10T23:36:35.622Z,73.90
2022-08-10T23:39:25.577Z,73.80
2022-08-10T23:41:54.903Z,73.90
2022-08-10T23:44:23.298Z,74.10
2022-08-10T23:46:53.494Z,74.10
2022-08-10T23:49:23.302Z,74.10
2022-08-10T23:51:56.265Z,74.20
2022-08-10T23:54:25.106Z,74.30
2022-08-10T23:56:55.028Z,74.30
2022-08-10T23:59:23.686Z,74.60
